sensor_id;sensor_type;location;lat;lon;timestamp;P1;durP1;ratioP1;P2;durP2;ratioP2
77220;SDS011;66217;50.004;8.266;2023-05-10T00:00:26;1.45;;;0.73;;
77220;SDS011;66217;50.004;8.266;2023-05-10T00:02:52;0.60;;;0.40;;
77220;SDS011;66217;50.004;8.266;2023-05-10T00:05:17;0.65;;;0.47;;
77220;SDS011;66217;50.004;8.266;2023-05-10T00:07:43;0.65;;;0.50;;
77220;SDS011;66217;50.004;8.266;2023-05-10T00:10:10;1.98;;;0.60;;
77220;SDS011;66217;50.004;8.266;2023-05-10T00:12:35;0.50;;;0.50;;
77220;SDS011;66217;50.004;8.266;2023-05-10T00:15:01;0.35;;;0.35;;
77220;SDS011;66217;50.004;8.266;2023-05-10T00:17:28;2.95;;;0.60;;
77220;SDS011;66217;50.004;8.266;2023-05-10T00:19:53;1.48;;;0.40;;
77220;SDS011;66217;50.004;8.266;2023-05-10T00:22:19;1.40;;;0.70;;
77220;SDS011;66217;50.004;8.266;2023-05-10T00:24:45;0.77;;;0.60;;
77220;SDS011;66217;50.004;8.266;2023-05-10T00:27:10;4.63;;;0.55;;
77220;SDS011;66217;50.004;8.266;2023-05-10T00:29:36;0.43;;;0.43;;
77220;SDS011;66217;50.004;8.266;2023-05-10T00:32:01;2.83;;;0.63;;
77220;SDS011;66217;50.004;8.266;2023-05-10T00:34:26;0.60;;;0.60;;
77220;SDS011;66217;50.004;8.266;2023-05-10T00:36:52;2.55;;;0.70;;
77220;SDS011;66217;50.004;8.266;2023-05-10T00:39:17;0.90;;;0.63;;
77220;SDS011;66217;50.004;8.266;2023-05-10T00:41:43;2.30;;;0.57;;
77220;SDS011;66217;50.004;8.266;2023-05-10T00:44:09;0.60;;;0.60;;
77220;SDS011;66217;50.004;8.266;2023-05-10T00:46:34;0.80;;;0.50;;
77220;SDS011;66217;50.004;8.266;2023-05-10T00:49:00;0.57;;;0.50;;
77220;SDS011;66217;50.004;8.266;2023-05-10T00:51:25;0.68;;;0.68;;
77220;SDS011;66217;50.004;8.266;2023-05-10T00:53:51;0.55;;;0.55;;
77220;SDS011;66217;50.004;8.266;2023-05-10T00:56:16;1.27;;;0.70;;
77220;SDS011;66217;50.004;8.266;2023-05-10T00:58:42;0.88;;;0.73;;
77220;SDS011;66217;50.004;8.266;2023-05-10T01:01:08;3.63;;;0.80;;
77220;SDS011;66217;50.004;8.266;2023-05-10T01:03:34;1.85;;;0.70;;
77220;SDS011;66217;50.004;8.266;2023-05-10T01:06:00;1.65;;;0.73;;
77220;SDS011;66217;50.004;8.266;2023-05-10T01:08:26;0.80;;;0.80;;
77220;SDS011;66217;50.004;8.266;2023-05-10T01:10:52;0.93;;;0.93;;
77220;SDS011;66217;50.004;8.266;2023-05-10T01:13:31;1.13;;;0.70;;
77220;SDS011;66217;50.004;8.266;2023-05-10T01:15:58;0.88;;;0.80;;
77220;SDS011;66217;50.004;8.266;2023-05-10T01:18:26;0.70;;;0.68;;
77220;SDS011;66217;50.004;8.266;2023-05-10T01:20:56;0.35;;;0.35;;
77220;SDS011;66217;50.004;8.266;2023-05-10T01:23:31;1.92;;;0.60;;
77220;SDS011;66217;50.004;8.266;2023-05-10T01:35:03;1.08;;;0.60;;
77220;SDS011;66217;50.004;8.266;2023-05-10T01:37:36;0.80;;;0.60;;
77220;SDS011;66217;50.004;8.266;2023-05-10T01:40:23;0.82;;;0.82;;
77220;SDS011;66217;50.004;8.266;2023-05-10T01:42:59;0.60;;;0.60;;
77220;SDS011;66217;50.004;8.266;2023-05-10T01:45:47;0.65;;;0.65;;
77220;SDS011;66217;50.004;8.266;2023-05-10T01:48:25;1.08;;;0.60;;
77220;SDS011;66217;50.004;8.266;2023-05-10T01:50:52;0.68;;;0.68;;
77220;SDS011;66217;50.004;8.266;2023-05-10T01:53:18;0.70;;;0.70;;
77220;SDS011;66217;50.004;8.266;2023-05-10T01:55:49;2.25;;;0.82;;
77220;SDS011;66217;50.004;8.266;2023-05-10T01:58:39;1.25;;;0.80;;
77220;SDS011;66217;50.004;8.266;2023-05-10T02:01:03;0.45;;;0.45;;
77220;SDS011;66217;50.004;8.266;2023-05-10T02:03:29;3.90;;;0.68;;
77220;SDS011;66217;50.004;8.266;2023-05-10T02:05:56;0.70;;;0.70;;
77220;SDS011;66217;50.004;8.266;2023-05-10T02:08:22;1.15;;;0.90;;
77220;SDS011;66217;50.004;8.266;2023-05-10T02:10:49;1.02;;;1.00;;
77220;SDS011;66217;50.004;8.266;2023-05-10T02:13:17;1.52;;;0.80;;
77220;SDS011;66217;50.004;8.266;2023-05-10T02:15:43;0.77;;;0.77;;
77220;SDS011;66217;50.004;8.266;2023-05-10T02:18:12;0.85;;;0.85;;
77220;SDS011;66217;50.004;8.266;2023-05-10T02:20:38;2.17;;;0.85;;
77220;SDS011;66217;50.004;8.266;2023-05-10T02:23:04;2.00;;;0.88;;
77220;SDS011;66217;50.004;8.266;2023-05-10T02:25:30;0.93;;;0.93;;
77220;SDS011;66217;50.004;8.266;2023-05-10T02:27:56;0.80;;;0.77;;
77220;SDS011;66217;50.004;8.266;2023-05-10T02:30:22;2.30;;;1.05;;
77220;SDS011;66217;50.004;8.266;2023-05-10T02:32:49;0.80;;;0.80;;
77220;SDS011;66217;50.004;8.266;2023-05-10T02:35:16;1.00;;;0.90;;
77220;SDS011;66217;50.004;8.266;2023-05-10T02:37:44;1.27;;;1.00;;
77220;SDS011;66217;50.004;8.266;2023-05-10T02:40:10;0.93;;;0.90;;
77220;SDS011;66217;50.004;8.266;2023-05-10T02:42:37;1.25;;;1.00;;
77220;SDS011;66217;50.004;8.266;2023-05-10T02:45:05;2.63;;;1.00;;
77220;SDS011;66217;50.004;8.266;2023-05-10T02:47:34;0.90;;;0.90;;
77220;SDS011;66217;50.004;8.266;2023-05-10T02:50:00;2.13;;;1.30;;
77220;SDS011;66217;50.004;8.266;2023-05-10T02:52:27;2.55;;;1.10;;
77220;SDS011;66217;50.004;8.266;2023-05-10T02:54:57;0.82;;;0.82;;
77220;SDS011;66217;50.004;8.266;2023-05-10T02:57:26;1.27;;;1.08;;
77220;SDS011;66217;50.004;8.266;2023-05-10T02:59:53;0.98;;;0.90;;
77220;SDS011;66217;50.004;8.266;2023-05-10T03:02:20;4.10;;;1.10;;
77220;SDS011;66217;50.004;8.266;2023-05-10T03:04:46;2.08;;;1.30;;
77220;SDS011;66217;50.004;8.266;2023-05-10T03:07:11;1.40;;;1.10;;
77220;SDS011;66217;50.004;8.266;2023-05-10T03:09:37;4.00;;;1.23;;
77220;SDS011;66217;50.004;8.266;2023-05-10T03:14:33;2.03;;;1.40;;
77220;SDS011;66217;50.004;8.266;2023-05-10T03:19:54;1.60;;;1.33;;
77220;SDS011;66217;50.004;8.266;2023-05-10T03:22:25;2.65;;;1.40;;
77220;SDS011;66217;50.004;8.266;2023-05-10T03:24:53;1.20;;;1.10;;
77220;SDS011;66217;50.004;8.266;2023-05-10T03:27:22;1.02;;;1.00;;
77220;SDS011;66217;50.004;8.266;2023-05-10T03:29:48;3.53;;;1.10;;
77220;SDS011;66217;50.004;8.266;2023-05-10T03:32:16;1.58;;;1.20;;
77220;SDS011;66217;50.004;8.266;2023-05-10T03:34:41;4.18;;;1.30;;
77220;SDS011;66217;50.004;8.266;2023-05-10T03:37:08;1.60;;;1.13;;
77220;SDS011;66217;50.004;8.266;2023-05-10T03:39:34;1.38;;;1.20;;
77220;SDS011;66217;50.004;8.266;2023-05-10T03:42:01;6.25;;;1.30;;
77220;SDS011;66217;50.004;8.266;2023-05-10T03:44:26;1.30;;;1.20;;
77220;SDS011;66217;50.004;8.266;2023-05-10T03:46:52;1.63;;;1.30;;
77220;SDS011;66217;50.004;8.266;2023-05-10T03:49:17;6.60;;;1.30;;
77220;SDS011;66217;50.004;8.266;2023-05-10T03:51:43;7.47;;;1.42;;
77220;SDS011;66217;50.004;8.266;2023-05-10T03:54:09;5.80;;;1.10;;
77220;SDS011;66217;50.004;8.266;2023-05-10T03:56:34;1.40;;;1.30;;
77220;SDS011;66217;50.004;8.266;2023-05-10T03:58:59;1.20;;;1.10;;
77220;SDS011;66217;50.004;8.266;2023-05-10T04:01:25;1.15;;;1.08;;
77220;SDS011;66217;50.004;8.266;2023-05-10T04:03:51;5.95;;;1.10;;
77220;SDS011;66217;50.004;8.266;2023-05-10T04:06:16;1.20;;;1.10;;
77220;SDS011;66217;50.004;8.266;2023-05-10T04:08:42;1.33;;;1.20;;
77220;SDS011;66217;50.004;8.266;2023-05-10T04:11:07;2.50;;;1.38;;
77220;SDS011;66217;50.004;8.266;2023-05-10T04:13:34;3.80;;;1.40;;
77220;SDS011;66217;50.004;8.266;2023-05-10T04:16:02;2.10;;;1.30;;
77220;SDS011;66217;50.004;8.266;2023-05-10T04:18:28;3.90;;;1.50;;
77220;SDS011;66217;50.004;8.266;2023-05-10T04:20:53;3.08;;;1.30;;
77220;SDS011;66217;50.004;8.266;2023-05-10T04:23:19;4.30;;;1.50;;
77220;SDS011;66217;50.004;8.266;2023-05-10T04:25:44;2.13;;;1.50;;
77220;SDS011;66217;50.004;8.266;2023-05-10T04:28:10;1.70;;;1.60;;
77220;SDS011;66217;50.004;8.266;2023-05-10T04:30:35;3.00;;;1.30;;
77220;SDS011;66217;50.004;8.266;2023-05-10T04:33:01;1.85;;;1.40;;
77220;SDS011;66217;50.004;8.266;2023-05-10T04:35:27;1.58;;;1.25;;
77220;SDS011;66217;50.004;8.266;2023-05-10T04:37:53;1.95;;;1.73;;
77220;SDS011;66217;50.004;8.266;2023-05-10T04:40:19;4.00;;;1.40;;
77220;SDS011;66217;50.004;8.266;2023-05-10T04:42:45;1.45;;;1.30;;
77220;SDS011;66217;50.004;8.266;2023-05-10T04:45:10;2.08;;;1.45;;
77220;SDS011;66217;50.004;8.266;2023-05-10T04:47:36;9.18;;;1.50;;
77220;SDS011;66217;50.004;8.266;2023-05-10T04:50:02;2.72;;;1.80;;
77220;SDS011;66217;50.004;8.266;2023-05-10T04:52:28;1.77;;;1.33;;
77220;SDS011;66217;50.004;8.266;2023-05-10T04:54:54;4.60;;;1.50;;
77220;SDS011;66217;50.004;8.266;2023-05-10T04:57:19;3.22;;;1.67;;
77220;SDS011;66217;50.004;8.266;2023-05-10T04:59:44;1.98;;;1.50;;
77220;SDS011;66217;50.004;8.266;2023-05-10T05:02:10;1.70;;;1.50;;
77220;SDS011;66217;50.004;8.266;2023-05-10T05:04:35;3.58;;;1.73;;
77220;SDS011;66217;50.004;8.266;2023-05-10T05:07:01;3.08;;;1.50;;
77220;SDS011;66217;50.004;8.266;2023-05-10T05:09:26;5.30;;;1.90;;
77220;SDS011;66217;50.004;8.266;2023-05-10T05:11:52;3.38;;;1.80;;
77220;SDS011;66217;50.004;8.266;2023-05-10T05:14:17;3.38;;;1.80;;
77220;SDS011;66217;50.004;8.266;2023-05-10T05:16:42;3.25;;;1.80;;
77220;SDS011;66217;50.004;8.266;2023-05-10T05:19:08;4.53;;;1.73;;
77220;SDS011;66217;50.004;8.266;2023-05-10T05:21:33;7.43;;;1.80;;
77220;SDS011;66217;50.004;8.266;2023-05-10T05:23:59;3.90;;;1.73;;
77220;SDS011;66217;50.004;8.266;2023-05-10T05:26:25;4.53;;;1.77;;
77220;SDS011;66217;50.004;8.266;2023-05-10T05:28:51;3.55;;;2.00;;
77220;SDS011;66217;50.004;8.266;2023-05-10T05:31:19;3.15;;;1.77;;
77220;SDS011;66217;50.004;8.266;2023-05-10T05:33:45;3.97;;;1.88;;
77220;SDS011;66217;50.004;8.266;2023-05-10T05:36:10;6.35;;;1.92;;
77220;SDS011;66217;50.004;8.266;2023-05-10T05:38:36;7.18;;;2.10;;
77220;SDS011;66217;50.004;8.266;2023-05-10T05:41:01;5.68;;;1.70;;
77220;SDS011;66217;50.004;8.266;2023-05-10T05:43:27;5.40;;;2.03;;
77220;SDS011;66217;50.004;8.266;2023-05-10T05:45:53;4.10;;;2.20;;
77220;SDS011;66217;50.004;8.266;2023-05-10T05:48:18;4.80;;;2.10;;
77220;SDS011;66217;50.004;8.266;2023-05-10T05:50:44;9.05;;;2.00;;
77220;SDS011;66217;50.004;8.266;2023-05-10T05:53:10;3.35;;;1.95;;
77220;SDS011;66217;50.004;8.266;2023-05-10T05:55:36;5.50;;;2.00;;
77220;SDS011;66217;50.004;8.266;2023-05-10T05:58:01;4.75;;;2.38;;
77220;SDS011;66217;50.004;8.266;2023-05-10T06:00:27;6.05;;;4.03;;
77220;SDS011;66217;50.004;8.266;2023-05-10T06:02:54;6.70;;;2.20;;
77220;SDS011;66217;50.004;8.266;2023-05-10T06:05:20;3.60;;;1.80;;
77220;SDS011;66217;50.004;8.266;2023-05-10T06:07:46;4.55;;;2.05;;
77220;SDS011;66217;50.004;8.266;2023-05-10T06:10:11;7.05;;;2.20;;
77220;SDS011;66217;50.004;8.266;2023-05-10T06:12:36;7.50;;;2.30;;
77220;SDS011;66217;50.004;8.266;2023-05-10T06:15:02;3.53;;;2.55;;
77220;SDS011;66217;50.004;8.266;2023-05-10T06:17:28;5.55;;;2.20;;
77220;SDS011;66217;50.004;8.266;2023-05-10T06:19:54;7.63;;;2.65;;
77220;SDS011;66217;50.004;8.266;2023-05-10T06:22:19;4.60;;;2.10;;
77220;SDS011;66217;50.004;8.266;2023-05-10T06:24:46;4.30;;;1.88;;
77220;SDS011;66217;50.004;8.266;2023-05-10T06:27:12;3.88;;;2.10;;
77220;SDS011;66217;50.004;8.266;2023-05-10T06:29:37;5.38;;;2.00;;
77220;SDS011;66217;50.004;8.266;2023-05-10T06:32:03;2.67;;;1.75;;
77220;SDS011;66217;50.004;8.266;2023-05-10T06:34:29;4.55;;;2.30;;
77220;SDS011;66217;50.004;8.266;2023-05-10T06:36:54;2.35;;;1.70;;
77220;SDS011;66217;50.004;8.266;2023-05-10T06:39:20;7.57;;;2.10;;
77220;SDS011;66217;50.004;8.266;2023-05-10T06:41:46;5.03;;;1.90;;
77220;SDS011;66217;50.004;8.266;2023-05-10T06:44:11;6.88;;;1.80;;
77220;SDS011;66217;50.004;8.266;2023-05-10T06:46:38;4.25;;;1.70;;
77220;SDS011;66217;50.004;8.266;2023-05-10T06:49:03;4.05;;;1.90;;
77220;SDS011;66217;50.004;8.266;2023-05-10T06:51:29;3.72;;;1.77;;
77220;SDS011;66217;50.004;8.266;2023-05-10T06:53:55;3.08;;;1.77;;
77220;SDS011;66217;50.004;8.266;2023-05-10T06:56:20;4.53;;;1.85;;
77220;SDS011;66217;50.004;8.266;2023-05-10T06:58:47;5.32;;;1.80;;
77220;SDS011;66217;50.004;8.266;2023-05-10T07:01:13;4.60;;;2.13;;
77220;SDS011;66217;50.004;8.266;2023-05-10T07:03:38;4.38;;;1.98;;
77220;SDS011;66217;50.004;8.266;2023-05-10T07:06:04;4.53;;;1.80;;
77220;SDS011;66217;50.004;8.266;2023-05-10T07:08:33;4.15;;;1.73;;
77220;SDS011;66217;50.004;8.266;2023-05-10T07:11:02;6.28;;;2.10;;
77220;SDS011;66217;50.004;8.266;2023-05-10T07:13:29;5.18;;;1.88;;
77220;SDS011;66217;50.004;8.266;2023-05-10T07:15:58;6.85;;;2.05;;
77220;SDS011;66217;50.004;8.266;2023-05-10T07:18:24;4.72;;;1.70;;
77220;SDS011;66217;50.004;8.266;2023-05-10T07:20:50;3.22;;;1.70;;
77220;SDS011;66217;50.004;8.266;2023-05-10T07:23:16;3.17;;;1.60;;
77220;SDS011;66217;50.004;8.266;2023-05-10T07:25:46;2.38;;;1.50;;
77220;SDS011;66217;50.004;8.266;2023-05-10T07:28:13;3.47;;;1.80;;
77220;SDS011;66217;50.004;8.266;2023-05-10T07:30:39;5.63;;;1.98;;
77220;SDS011;66217;50.004;8.266;2023-05-10T07:33:06;6.55;;;1.70;;
77220;SDS011;66217;50.004;8.266;2023-05-10T07:35:33;4.95;;;1.80;;
77220;SDS011;66217;50.004;8.266;2023-05-10T07:37:59;3.20;;;1.70;;
77220;SDS011;66217;50.004;8.266;2023-05-10T07:40:25;6.32;;;1.70;;
77220;SDS011;66217;50.004;8.266;2023-05-10T07:42:50;2.10;;;1.50;;
77220;SDS011;66217;50.004;8.266;2023-05-10T07:45:16;3.45;;;1.75;;
77220;SDS011;66217;50.004;8.266;2023-05-10T07:47:41;4.43;;;1.70;;
77220;SDS011;66217;50.004;8.266;2023-05-10T07:50:09;4.00;;;1.63;;
77220;SDS011;66217;50.004;8.266;2023-05-10T07:52:35;4.25;;;2.10;;
77220;SDS011;66217;50.004;8.266;2023-05-10T07:55:00;4.47;;;1.52;;
77220;SDS011;66217;50.004;8.266;2023-05-10T07:57:26;4.72;;;1.95;;
77220;SDS011;66217;50.004;8.266;2023-05-10T07:59:51;6.75;;;1.90;;
77220;SDS011;66217;50.004;8.266;2023-05-10T08:02:16;5.90;;;1.80;;
77220;SDS011;66217;50.004;8.266;2023-05-10T08:04:42;4.75;;;1.73;;
77220;SDS011;66217;50.004;8.266;2023-05-10T08:07:07;9.15;;;2.33;;
77220;SDS011;66217;50.004;8.266;2023-05-10T08:09:33;5.28;;;2.17;;
77220;SDS011;66217;50.004;8.266;2023-05-10T08:11:58;4.07;;;1.80;;
77220;SDS011;66217;50.004;8.266;2023-05-10T08:14:25;3.70;;;2.10;;
77220;SDS011;66217;50.004;8.266;2023-05-10T08:16:52;4.78;;;2.45;;
77220;SDS011;66217;50.004;8.266;2023-05-10T08:19:17;7.20;;;1.52;;
77220;SDS011;66217;50.004;8.266;2023-05-10T08:21:45;4.35;;;1.70;;
77220;SDS011;66217;50.004;8.266;2023-05-10T08:24:10;5.28;;;2.00;;
77220;SDS011;66217;50.004;8.266;2023-05-10T08:26:36;4.45;;;1.60;;
77220;SDS011;66217;50.004;8.266;2023-05-10T08:29:01;5.60;;;1.98;;
77220;SDS011;66217;50.004;8.266;2023-05-10T08:31:27;10.13;;;1.80;;
77220;SDS011;66217;50.004;8.266;2023-05-10T08:33:52;4.38;;;1.75;;
77220;SDS011;66217;50.004;8.266;2023-05-10T08:36:18;6.35;;;2.25;;
77220;SDS011;66217;50.004;8.266;2023-05-10T08:38:53;3.90;;;1.95;;
77220;SDS011;66217;50.004;8.266;2023-05-10T08:41:19;2.97;;;1.40;;
77220;SDS011;66217;50.004;8.266;2023-05-10T08:43:46;2.22;;;1.50;;
77220;SDS011;66217;50.004;8.266;2023-05-10T08:46:12;6.47;;;2.20;;
77220;SDS011;66217;50.004;8.266;2023-05-10T08:48:41;9.50;;;4.72;;
77220;SDS011;66217;50.004;8.266;2023-05-10T08:51:07;4.97;;;1.80;;
77220;SDS011;66217;50.004;8.266;2023-05-10T08:53:33;3.55;;;1.80;;
77220;SDS011;66217;50.004;8.266;2023-05-10T08:56:01;7.40;;;2.22;;
77220;SDS011;66217;50.004;8.266;2023-05-10T08:58:27;3.92;;;1.70;;
77220;SDS011;66217;50.004;8.266;2023-05-10T09:00:53;4.38;;;1.65;;
77220;SDS011;66217;50.004;8.266;2023-05-10T09:03:18;3.92;;;1.50;;
77220;SDS011;66217;50.004;8.266;2023-05-10T09:05:44;3.90;;;1.60;;
77220;SDS011;66217;50.004;8.266;2023-05-10T09:08:09;3.63;;;1.55;;
77220;SDS011;66217;50.004;8.266;2023-05-10T09:10:37;2.17;;;1.55;;
77220;SDS011;66217;50.004;8.266;2023-05-10T09:13:03;3.42;;;1.67;;
77220;SDS011;66217;50.004;8.266;2023-05-10T09:15:29;3.22;;;1.52;;
77220;SDS011;66217;50.004;8.266;2023-05-10T09:17:55;4.00;;;1.50;;
77220;SDS011;66217;50.004;8.266;2023-05-10T09:20:23;1.65;;;1.33;;
77220;SDS011;66217;50.004;8.266;2023-05-10T09:22:49;3.67;;;1.90;;
77220;SDS011;66217;50.004;8.266;2023-05-10T09:25:15;5.20;;;1.60;;
77220;SDS011;66217;50.004;8.266;2023-05-10T09:27:41;1.30;;;1.20;;
77220;SDS011;66217;50.004;8.266;2023-05-10T09:30:10;3.67;;;1.42;;
77220;SDS011;66217;50.004;8.266;2023-05-10T09:35:06;5.03;;;1.83;;
77220;SDS011;66217;50.004;8.266;2023-05-10T09:37:32;1.58;;;1.20;;
77220;SDS011;66217;50.004;8.266;2023-05-10T09:39:58;6.97;;;3.08;;
77220;SDS011;66217;50.004;8.266;2023-05-10T09:42:23;4.10;;;1.40;;
77220;SDS011;66217;50.004;8.266;2023-05-10T09:44:49;7.38;;;4.25;;
77220;SDS011;66217;50.004;8.266;2023-05-10T09:47:17;3.63;;;1.70;;
77220;SDS011;66217;50.004;8.266;2023-05-10T09:49:49;1.60;;;1.20;;
77220;SDS011;66217;50.004;8.266;2023-05-10T09:52:15;2.35;;;1.30;;
77220;SDS011;66217;50.004;8.266;2023-05-10T09:54:44;2.15;;;1.20;;
77220;SDS011;66217;50.004;8.266;2023-05-10T09:57:21;3.33;;;1.52;;
77220;SDS011;66217;50.004;8.266;2023-05-10T09:59:47;4.18;;;2.42;;
77220;SDS011;66217;50.004;8.266;2023-05-10T10:02:13;3.45;;;1.20;;
77220;SDS011;66217;50.004;8.266;2023-05-10T10:04:39;2.65;;;1.20;;
77220;SDS011;66217;50.004;8.266;2023-05-10T10:07:05;3.22;;;1.25;;
77220;SDS011;66217;50.004;8.266;2023-05-10T10:09:31;2.88;;;1.30;;
77220;SDS011;66217;50.004;8.266;2023-05-10T10:11:58;1.55;;;1.25;;
77220;SDS011;66217;50.004;8.266;2023-05-10T10:14:24;1.80;;;1.08;;
77220;SDS011;66217;50.004;8.266;2023-05-10T10:16:50;5.63;;;1.17;;
77220;SDS011;66217;50.004;8.266;2023-05-10T10:19:16;3.20;;;1.20;;
77220;SDS011;66217;50.004;8.266;2023-05-10T10:21:46;1.45;;;1.13;;
77220;SDS011;66217;50.004;8.266;2023-05-10T10:24:12;3.38;;;1.13;;
77220;SDS011;66217;50.004;8.266;2023-05-10T10:26:37;5.50;;;1.23;;
77220;SDS011;66217;50.004;8.266;2023-05-10T10:29:39;4.07;;;1.50;;
77220;SDS011;66217;50.004;8.266;2023-05-10T10:32:19;2.33;;;1.23;;
77220;SDS011;66217;50.004;8.266;2023-05-10T10:34:47;1.67;;;1.05;;
77220;SDS011;66217;50.004;8.266;2023-05-10T10:37:13;1.80;;;1.17;;
77220;SDS011;66217;50.004;8.266;2023-05-10T10:39:38;4.07;;;1.17;;
77220;SDS011;66217;50.004;8.266;2023-05-10T10:42:04;2.10;;;1.10;;
77220;SDS011;66217;50.004;8.266;2023-05-10T10:49:28;2.83;;;1.02;;
77220;SDS011;66217;50.004;8.266;2023-05-10T10:54:57;1.15;;;1.05;;
77220;SDS011;66217;50.004;8.266;2023-05-10T10:57:23;2.50;;;1.10;;
77220;SDS011;66217;50.004;8.266;2023-05-10T10:59:48;4.38;;;1.50;;
77220;SDS011;66217;50.004;8.266;2023-05-10T11:04:59;3.17;;;1.88;;
77220;SDS011;66217;50.004;8.266;2023-05-10T11:07:25;1.75;;;1.40;;
77220;SDS011;66217;50.004;8.266;2023-05-10T11:09:51;1.63;;;1.30;;
77220;SDS011;66217;50.004;8.266;2023-05-10T11:12:16;6.10;;;1.40;;
77220;SDS011;66217;50.004;8.266;2023-05-10T11:14:42;3.92;;;1.45;;
77220;SDS011;66217;50.004;8.266;2023-05-10T11:20:09;2.10;;;1.10;;
77220;SDS011;66217;50.004;8.266;2023-05-10T11:22:50;1.77;;;1.23;;
77220;SDS011;66217;50.004;8.266;2023-05-10T11:25:17;1.48;;;1.05;;
77220;SDS011;66217;50.004;8.266;2023-05-10T11:27:42;5.28;;;1.15;;
77220;SDS011;66217;50.004;8.266;2023-05-10T11:30:09;1.23;;;1.13;;
77220;SDS011;66217;50.004;8.266;2023-05-10T11:32:39;1.75;;;1.10;;
77220;SDS011;66217;50.004;8.266;2023-05-10T11:35:08;1.45;;;1.00;;
77220;SDS011;66217;50.004;8.266;2023-05-10T11:40:00;2.40;;;1.10;;
77220;SDS011;66217;50.004;8.266;2023-05-10T11:42:27;1.95;;;1.33;;
77220;SDS011;66217;50.004;8.266;2023-05-10T11:44:53;1.17;;;1.00;;
77220;SDS011;66217;50.004;8.266;2023-05-10T11:47:18;5.35;;;1.15;;
77220;SDS011;66217;50.004;8.266;2023-05-10T11:49:45;1.33;;;1.02;;
77220;SDS011;66217;50.004;8.266;2023-05-10T11:52:11;1.73;;;1.20;;
77220;SDS011;66217;50.004;8.266;2023-05-10T11:54:37;2.72;;;1.10;;
77220;SDS011;66217;50.004;8.266;2023-05-10T11:57:02;3.35;;;1.00;;
77220;SDS011;66217;50.004;8.266;2023-05-10T11:59:28;1.10;;;1.00;;
77220;SDS011;66217;50.004;8.266;2023-05-10T12:01:54;3.72;;;0.77;;
77220;SDS011;66217;50.004;8.266;2023-05-10T12:04:19;0.73;;;0.73;;
77220;SDS011;66217;50.004;8.266;2023-05-10T12:06:45;2.78;;;0.93;;
77220;SDS011;66217;50.004;8.266;2023-05-10T12:09:11;0.90;;;0.90;;
77220;SDS011;66217;50.004;8.266;2023-05-10T12:11:40;1.25;;;0.90;;
77220;SDS011;66217;50.004;8.266;2023-05-10T12:14:06;3.25;;;1.13;;
77220;SDS011;66217;50.004;8.266;2023-05-10T12:16:31;3.17;;;0.93;;
77220;SDS011;66217;50.004;8.266;2023-05-10T12:18:59;3.55;;;1.23;;
77220;SDS011;66217;50.004;8.266;2023-05-10T12:21:25;2.33;;;1.00;;
77220;SDS011;66217;50.004;8.266;2023-05-10T12:23:54;4.03;;;1.63;;
77220;SDS011;66217;50.004;8.266;2023-05-10T12:26:23;1.45;;;1.20;;
77220;SDS011;66217;50.004;8.266;2023-05-10T12:28:52;2.38;;;1.23;;
77220;SDS011;66217;50.004;8.266;2023-05-10T12:31:18;1.95;;;1.50;;
77220;SDS011;66217;50.004;8.266;2023-05-10T12:33:44;0.90;;;0.90;;
77220;SDS011;66217;50.004;8.266;2023-05-10T12:36:10;1.23;;;1.00;;
77220;SDS011;66217;50.004;8.266;2023-05-10T12:41:04;3.65;;;1.10;;
77220;SDS011;66217;50.004;8.266;2023-05-10T12:43:31;1.23;;;1.00;;
77220;SDS011;66217;50.004;8.266;2023-05-10T12:45:57;2.42;;;0.77;;
77220;SDS011;66217;50.004;8.266;2023-05-10T12:48:22;2.88;;;0.98;;
77220;SDS011;66217;50.004;8.266;2023-05-10T12:50:48;1.90;;;1.00;;
77220;SDS011;66217;50.004;8.266;2023-05-10T12:53:14;3.28;;;1.48;;
77220;SDS011;66217;50.004;8.266;2023-05-10T12:55:40;2.25;;;1.10;;
77220;SDS011;66217;50.004;8.266;2023-05-10T12:58:06;2.88;;;1.20;;
77220;SDS011;66217;50.004;8.266;2023-05-10T13:00:32;2.55;;;1.60;;
77220;SDS011;66217;50.004;8.266;2023-05-10T13:02:57;2.25;;;1.35;;
77220;SDS011;66217;50.004;8.266;2023-05-10T13:05:23;2.15;;;1.35;;
77220;SDS011;66217;50.004;8.266;2023-05-10T13:07:48;2.97;;;1.45;;
77220;SDS011;66217;50.004;8.266;2023-05-10T13:10:13;3.30;;;1.20;;
77220;SDS011;66217;50.004;8.266;2023-05-10T13:12:39;4.65;;;1.25;;
77220;SDS011;66217;50.004;8.266;2023-05-10T13:15:05;3.80;;;1.05;;
77220;SDS011;66217;50.004;8.266;2023-05-10T13:17:31;4.50;;;1.10;;
77220;SDS011;66217;50.004;8.266;2023-05-10T13:19:57;1.75;;;0.90;;
77220;SDS011;66217;50.004;8.266;2023-05-10T13:22:22;2.08;;;1.00;;
77220;SDS011;66217;50.004;8.266;2023-05-10T13:24:48;1.98;;;1.08;;
77220;SDS011;66217;50.004;8.266;2023-05-10T13:27:13;4.20;;;1.35;;
77220;SDS011;66217;50.004;8.266;2023-05-10T13:29:38;3.20;;;1.50;;
77220;SDS011;66217;50.004;8.266;2023-05-10T13:32:04;2.33;;;1.08;;
77220;SDS011;66217;50.004;8.266;2023-05-10T13:34:30;2.20;;;1.00;;
77220;SDS011;66217;50.004;8.266;2023-05-10T13:36:55;2.05;;;1.30;;
77220;SDS011;66217;50.004;8.266;2023-05-10T13:39:21;1.30;;;1.00;;
77220;SDS011;66217;50.004;8.266;2023-05-10T13:41:47;5.25;;;1.15;;
77220;SDS011;66217;50.004;8.266;2023-05-10T13:44:13;3.28;;;0.88;;
77220;SDS011;66217;50.004;8.266;2023-05-10T13:46:39;1.90;;;1.05;;
77220;SDS011;66217;50.004;8.266;2023-05-10T13:49:05;3.78;;;1.23;;
77220;SDS011;66217;50.004;8.266;2023-05-10T13:51:31;2.20;;;1.15;;
77220;SDS011;66217;50.004;8.266;2023-05-10T13:53:57;1.55;;;1.10;;
77220;SDS011;66217;50.004;8.266;2023-05-10T13:56:23;2.47;;;1.00;;
77220;SDS011;66217;50.004;8.266;2023-05-10T13:58:51;1.10;;;1.00;;
77220;SDS011;66217;50.004;8.266;2023-05-10T14:01:16;5.13;;;1.27;;
77220;SDS011;66217;50.004;8.266;2023-05-10T14:03:42;2.85;;;1.10;;
77220;SDS011;66217;50.004;8.266;2023-05-10T14:06:07;2.95;;;1.30;;
77220;SDS011;66217;50.004;8.266;2023-05-10T14:08:33;0.93;;;0.90;;
77220;SDS011;66217;50.004;8.266;2023-05-10T14:11:01;5.18;;;1.50;;
77220;SDS011;66217;50.004;8.266;2023-05-10T14:13:27;5.35;;;2.40;;
77220;SDS011;66217;50.004;8.266;2023-05-10T14:15:53;2.88;;;1.67;;
77220;SDS011;66217;50.004;8.266;2023-05-10T14:18:19;1.45;;;1.20;;
77220;SDS011;66217;50.004;8.266;2023-05-10T14:20:44;4.82;;;1.30;;
77220;SDS011;66217;50.004;8.266;2023-05-10T14:23:12;3.72;;;1.20;;
77220;SDS011;66217;50.004;8.266;2023-05-10T14:25:37;2.25;;;1.25;;
77220;SDS011;66217;50.004;8.266;2023-05-10T14:28:04;5.43;;;2.17;;
77220;SDS011;66217;50.004;8.266;2023-05-10T14:30:30;3.75;;;1.55;;
77220;SDS011;66217;50.004;8.266;2023-05-10T14:32:56;2.78;;;1.42;;
77220;SDS011;66217;50.004;8.266;2023-05-10T14:35:23;3.42;;;1.20;;
77220;SDS011;66217;50.004;8.266;2023-05-10T14:37:48;2.05;;;1.20;;
77220;SDS011;66217;50.004;8.266;2023-05-10T14:40:14;3.50;;;1.50;;
77220;SDS011;66217;50.004;8.266;2023-05-10T14:42:40;3.92;;;1.50;;
77220;SDS011;66217;50.004;8.266;2023-05-10T14:45:07;4.85;;;1.63;;
77220;SDS011;66217;50.004;8.266;2023-05-10T14:47:33;1.67;;;1.38;;
77220;SDS011;66217;50.004;8.266;2023-05-10T14:49:59;11.93;;;3.03;;
77220;SDS011;66217;50.004;8.266;2023-05-10T14:52:25;2.53;;;1.25;;
77220;SDS011;66217;50.004;8.266;2023-05-10T14:54:50;2.83;;;1.30;;
77220;SDS011;66217;50.004;8.266;2023-05-10T14:57:19;1.55;;;1.15;;
77220;SDS011;66217;50.004;8.266;2023-05-10T14:59:44;2.38;;;1.30;;
77220;SDS011;66217;50.004;8.266;2023-05-10T15:02:10;3.45;;;1.20;;
77220;SDS011;66217;50.004;8.266;2023-05-10T15:04:36;3.45;;;1.30;;
77220;SDS011;66217;50.004;8.266;2023-05-10T15:07:02;2.28;;;1.30;;
77220;SDS011;66217;50.004;8.266;2023-05-10T15:09:28;3.05;;;1.30;;
77220;SDS011;66217;50.004;8.266;2023-05-10T15:11:53;2.75;;;1.48;;
77220;SDS011;66217;50.004;8.266;2023-05-10T15:14:24;6.05;;;2.28;;
77220;SDS011;66217;50.004;8.266;2023-05-10T15:16:49;6.35;;;1.85;;
77220;SDS011;66217;50.004;8.266;2023-05-10T15:19:15;2.33;;;1.35;;